sensor_id;sensor_type;location;lat;lon;timestamp;temperature;humidity
24326;DHT22;12448;45.532;5.290;2023-07-20T00:00:29;24.40;60.50
24326;DHT22;12448;45.532;5.290;2023-07-20T00:03:13;24.50;60.40
24326;DHT22;12448;45.532;5.290;2023-07-20T00:05:46;24.40;60.50
24326;DHT22;12448;45.532;5.290;2023-07-20T00:08:12;24.40;60.60
24326;DHT22;12448;45.532;5.290;2023-07-20T00:10:39;24.20;60.70
24326;DHT22;12448;45.532;5.290;2023-07-20T00:13:05;24.20;60.90
24326;DHT22;12448;45.532;5.290;2023-07-20T00:15:31;24.20;61.10
24326;DHT22;12448;45.532;5.290;2023-07-20T00:17:57;24.20;61.10
24326;DHT22;12448;45.532;5.290;2023-07-20T00:20:24;24.20;61.90
24326;DHT22;12448;45.532;5.290;2023-07-20T00:22:50;24.20;61.10
24326;DHT22;12448;45.532;5.290;2023-07-20T00:25:20;24.10;61.20
24326;DHT22;12448;45.532;5.290;2023-07-20T00:27:46;24.10;61.50
24326;DHT22;12448;45.532;5.290;2023-07-20T00:30:12;24.00;61.70
24326;DHT22;12448;45.532;5.290;2023-07-20T00:32:38;24.00;61.70
24326;DHT22;12448;45.532;5.290;2023-07-20T00:35:04;23.90;62.80
24326;DHT22;12448;45.532;5.290;2023-07-20T00:37:29;23.90;62.20
24326;DHT22;12448;45.532;5.290;2023-07-20T00:39:55;23.80;62.40
24326;DHT22;12448;45.532;5.290;2023-07-20T00:42:21;23.80;62.50
24326;DHT22;12448;45.532;5.290;2023-07-20T00:44:47;23.80;62.60
24326;DHT22;12448;45.532;5.290;2023-07-20T00:47:13;23.70;62.80
24326;DHT22;12448;45.532;5.290;2023-07-20T00:49:39;23.70;63.00
24326;DHT22;12448;45.532;5.290;2023-07-20T00:52:06;23.60;63.20
24326;DHT22;12448;45.532;5.290;2023-07-20T00:54:33;23.60;63.40
24326;DHT22;12448;45.532;5.290;2023-07-20T00:57:00;23.40;63.70
24326;DHT22;12448;45.532;5.290;2023-07-20T00:59:27;23.40;63.90
24326;DHT22;12448;45.532;5.290;2023-07-20T01:01:52;23.40;64.00
24326;DHT22;12448;45.532;5.290;2023-07-20T01:04:19;23.40;64.30
24326;DHT22;12448;45.532;5.290;2023-07-20T01:09:28;23.30;64.40
24326;DHT22;12448;45.532;5.290;2023-07-20T01:12:07;23.30;64.60
24326;DHT22;12448;45.532;5.290;2023-07-20T01:14:34;23.20;65.00
24326;DHT22;12448;45.532;5.290;2023-07-20T01:17:01;23.10;65.20
24326;DHT22;12448;45.532;5.290;2023-07-20T01:19:27;23.10;65.20
24326;DHT22;12448;45.532;5.290;2023-07-20T01:21:57;23.10;65.40
24326;DHT22;12448;45.532;5.290;2023-07-20T01:32:43;23.10;65.80
24326;DHT22;12448;45.532;5.290;2023-07-20T01:35:11;23.00;65.90
24326;DHT22;12448;45.532;5.290;2023-07-20T01:37:42;23.00;66.10
24326;DHT22;12448;45.532;5.290;2023-07-20T01:40:11;22.90;66.20
24326;DHT22;12448;45.532;5.290;2023-07-20T01:42:37;22.80;66.40
24326;DHT22;12448;45.532;5.290;2023-07-20T01:45:03;22.70;66.80
24326;DHT22;12448;45.532;5.290;2023-07-20T01:47:28;22.70;66.90
24326;DHT22;12448;45.532;5.290;2023-07-20T01:49:54;22.70;67.20
24326;DHT22;12448;45.532;5.290;2023-07-20T01:52:20;22.70;67.30
24326;DHT22;12448;45.532;5.290;2023-07-20T01:54:45;22.70;67.30
24326;DHT22;12448;45.532;5.290;2023-07-20T01:57:11;22.60;67.40
24326;DHT22;12448;45.532;5.290;2023-07-20T01:59:37;22.60;67.50
24326;DHT22;12448;45.532;5.290;2023-07-20T02:02:02;22.60;67.70
24326;DHT22;12448;45.532;5.290;2023-07-20T02:04:28;22.50;67.80
24326;DHT22;12448;45.532;5.290;2023-07-20T02:06:53;22.40;68.10
24326;DHT22;12448;45.532;5.290;2023-07-20T02:09:19;22.30;68.40
24326;DHT22;12448;45.532;5.290;2023-07-20T02:11:45;22.20;68.90
24326;DHT22;12448;45.532;5.290;2023-07-20T02:14:10;22.10;69.20
24326;DHT22;12448;45.532;5.290;2023-07-20T02:16:36;22.10;69.50
24326;DHT22;12448;45.532;5.290;2023-07-20T02:19:02;22.00;69.60
24326;DHT22;12448;45.532;5.290;2023-07-20T02:21:29;22.00;70.00
24326;DHT22;12448;45.532;5.290;2023-07-20T02:23:54;21.90;70.20
24326;DHT22;12448;45.532;5.290;2023-07-20T02:26:20;21.90;70.30
24326;DHT22;12448;45.532;5.290;2023-07-20T02:28:45;21.70;70.60
24326;DHT22;12448;45.532;5.290;2023-07-20T02:31:11;21.70;70.80
24326;DHT22;12448;45.532;5.290;2023-07-20T02:33:36;21.70;71.10
24326;DHT22;12448;45.532;5.290;2023-07-20T02:36:02;21.60;71.70
24326;DHT22;12448;45.532;5.290;2023-07-20T02:38:28;21.60;71.80
24326;DHT22;12448;45.532;5.290;2023-07-20T02:40:53;21.60;71.00
24326;DHT22;12448;45.532;5.290;2023-07-20T02:43:19;21.60;71.00
24326;DHT22;12448;45.532;5.290;2023-07-20T02:45:44;21.60;70.90
24326;DHT22;12448;45.532;5.290;2023-07-20T02:48:10;21.60;70.70
24326;DHT22;12448;45.532;5.290;2023-07-20T02:50:36;21.70;70.60
24326;DHT22;12448;45.532;5.290;2023-07-20T02:53:02;21.80;71.10
24326;DHT22;12448;45.532;5.290;2023-07-20T02:55:27;21.80;70.20
24326;DHT22;12448;45.532;5.290;2023-07-20T02:57:53;21.80;70.20
24326;DHT22;12448;45.532;5.290;2023-07-20T03:00:19;21.80;70.10
24326;DHT22;12448;45.532;5.290;2023-07-20T03:02:45;21.80;70.00
24326;DHT22;12448;45.532;5.290;2023-07-20T03:05:13;21.90;70.10
24326;DHT22;12448;45.532;5.290;2023-07-20T03:07:39;21.90;69.90
24326;DHT22;12448;45.532;5.290;2023-07-20T03:10:05;21.90;69.80
24326;DHT22;12448;45.532;5.290;2023-07-20T03:12:34;22.00;69.60
24326;DHT22;12448;45.532;5.290;2023-07-20T03:15:00;21.90;69.50
24326;DHT22;12448;45.532;5.290;2023-07-20T03:17:26;21.90;69.60
24326;DHT22;12448;45.532;5.290;2023-07-20T03:19:51;21.80;69.70
24326;DHT22;12448;45.532;5.290;2023-07-20T03:22:17;21.70;70.00
24326;DHT22;12448;45.532;5.290;2023-07-20T03:24:43;21.60;70.20
24326;DHT22;12448;45.532;5.290;2023-07-20T03:27:09;21.70;70.20
24326;DHT22;12448;45.532;5.290;2023-07-20T03:29:35;21.80;70.10
24326;DHT22;12448;45.532;5.290;2023-07-20T03:32:00;21.70;70.10
24326;DHT22;12448;45.532;5.290;2023-07-20T03:34:26;21.70;70.10
24326;DHT22;12448;45.532;5.290;2023-07-20T03:36:51;21.60;70.20
24326;DHT22;12448;45.532;5.290;2023-07-20T03:39:17;21.70;70.20
24326;DHT22;12448;45.532;5.290;2023-07-20T03:41:43;21.70;70.10
24326;DHT22;12448;45.532;5.290;2023-07-20T03:44:08;21.70;70.00
24326;DHT22;12448;45.532;5.290;2023-07-20T03:46:34;21.70;70.00
24326;DHT22;12448;45.532;5.290;2023-07-20T03:49:00;21.70;69.90
24326;DHT22;12448;45.532;5.290;2023-07-20T03:51:26;21.70;70.00
24326;DHT22;12448;45.532;5.290;2023-07-20T03:53:51;21.60;70.00
24326;DHT22;12448;45.532;5.290;2023-07-20T03:56:17;21.60;70.20
24326;DHT22;12448;45.532;5.290;2023-07-20T03:58:43;21.60;70.30
24326;DHT22;12448;45.532;5.290;2023-07-20T04:01:09;21.60;70.40
24326;DHT22;12448;45.532;5.290;2023-07-20T04:03:35;21.50;70.70
24326;DHT22;12448;45.532;5.290;2023-07-20T04:06:01;21.50;70.80
24326;DHT22;12448;45.532;5.290;2023-07-20T04:08:27;21.50;71.00
24326;DHT22;12448;45.532;5.290;2023-07-20T04:10:53;21.50;71.10
24326;DHT22;12448;45.532;5.290;2023-07-20T04:13:19;21.50;71.10
24326;DHT22;12448;45.532;5.290;2023-07-20T04:15:44;21.50;71.20
24326;DHT22;12448;45.532;5.290;2023-07-20T04:18:10;21.50;71.10
24326;DHT22;12448;45.532;5.290;2023-07-20T04:20:36;21.50;71.10
24326;DHT22;12448;45.532;5.290;2023-07-20T04:23:01;21.60;70.90
24326;DHT22;12448;45.532;5.290;2023-07-20T04:25:27;21.60;71.00
24326;DHT22;12448;45.532;5.290;2023-07-20T04:27:52;21.60;71.00
24326;DHT22;12448;45.532;5.290;2023-07-20T04:30:19;21.50;71.20
24326;DHT22;12448;45.532;5.290;2023-07-20T04:32:46;21.40;71.50
24326;DHT22;12448;45.532;5.290;2023-07-20T04:35:44;21.40;71.70
24326;DHT22;12448;45.532;5.290;2023-07-20T04:38:03;21.40;71.90
24326;DHT22;12448;45.532;5.290;2023-07-20T04:40:28;21.40;72.00
24326;DHT22;12448;45.532;5.290;2023-07-20T04:42:54;21.30;72.10
24326;DHT22;12448;45.532;5.290;2023-07-20T04:45:19;21.20;72.20
24326;DHT22;12448;45.532;5.290;2023-07-20T04:47:48;21.30;72.40
24326;DHT22;12448;45.532;5.290;2023-07-20T04:50:15;21.30;72.40
24326;DHT22;12448;45.532;5.290;2023-07-20T04:52:41;21.40;72.30
24326;DHT22;12448;45.532;5.290;2023-07-20T04:55:07;21.40;72.30
24326;DHT22;12448;45.532;5.290;2023-07-20T04:57:33;21.50;72.30
24326;DHT22;12448;45.532;5.290;2023-07-20T04:59:58;21.50;72.30
24326;DHT22;12448;45.532;5.290;2023-07-20T05:02:24;21.50;72.30
24326;DHT22;12448;45.532;5.290;2023-07-20T05:04:50;21.50;72.30
24326;DHT22;12448;45.532;5.290;2023-07-20T05:07:15;21.50;72.40
24326;DHT22;12448;45.532;5.290;2023-07-20T05:09:41;21.50;72.40
24326;DHT22;12448;45.532;5.290;2023-07-20T05:12:06;21.60;72.40
24326;DHT22;12448;45.532;5.290;2023-07-20T05:14:32;21.60;72.30
24326;DHT22;12448;45.532;5.290;2023-07-20T05:16:58;21.70;72.20
24326;DHT22;12448;45.532;5.290;2023-07-20T05:19:25;21.70;72.30
24326;DHT22;12448;45.532;5.290;2023-07-20T05:21:51;21.70;72.20
24326;DHT22;12448;45.532;5.290;2023-07-20T05:24:16;21.60;72.50
24326;DHT22;12448;45.532;5.290;2023-07-20T05:26:42;21.60;72.60
24326;DHT22;12448;45.532;5.290;2023-07-20T05:29:07;21.60;73.10
24326;DHT22;12448;45.532;5.290;2023-07-20T05:31:33;21.50;73.20
24326;DHT22;12448;45.532;5.290;2023-07-20T05:33:58;21.50;73.40
24326;DHT22;12448;45.532;5.290;2023-07-20T05:36:24;21.50;73.40
24326;DHT22;12448;45.532;5.290;2023-07-20T05:38:50;21.40;73.50
24326;DHT22;12448;45.532;5.290;2023-07-20T05:41:15;21.40;74.10
24326;DHT22;12448;45.532;5.290;2023-07-20T05:43:41;21.50;74.00
24326;DHT22;12448;45.532;5.290;2023-07-20T05:46:07;21.60;74.10
24326;DHT22;12448;45.532;5.290;2023-07-20T05:48:33;21.50;75.20
24326;DHT22;12448;45.532;5.290;2023-07-20T05:50:59;21.40;74.40
24326;DHT22;12448;45.532;5.290;2023-07-20T05:53:24;21.50;74.40
24326;DHT22;12448;45.532;5.290;2023-07-20T05:55:53;21.50;74.30
24326;DHT22;12448;45.532;5.290;2023-07-20T05:58:19;21.60;75.00
24326;DHT22;12448;45.532;5.290;2023-07-20T06:00:48;21.60;74.40
24326;DHT22;12448;45.532;5.290;2023-07-20T06:03:14;21.70;74.40
24326;DHT22;12448;45.532;5.290;2023-07-20T06:05:42;21.80;74.10
24326;DHT22;12448;45.532;5.290;2023-07-20T06:08:07;21.80;74.10
24326;DHT22;12448;45.532;5.290;2023-07-20T06:10:33;21.80;74.30
24326;DHT22;12448;45.532;5.290;2023-07-20T06:12:58;21.80;74.10
24326;DHT22;12448;45.532;5.290;2023-07-20T06:15:31;21.80;74.10
24326;DHT22;12448;45.532;5.290;2023-07-20T06:17:56;21.80;74.10
24326;DHT22;12448;45.532;5.290;2023-07-20T06:20:23;21.80;73.90
24326;DHT22;12448;45.532;5.290;2023-07-20T06:22:49;21.80;74.10
24326;DHT22;12448;45.532;5.290;2023-07-20T06:25:15;21.80;74.00
24326;DHT22;12448;45.532;5.290;2023-07-20T06:27:41;21.80;74.70
24326;DHT22;12448;45.532;5.290;2023-07-20T06:30:07;21.70;74.70
24326;DHT22;12448;45.532;5.290;2023-07-20T06:32:33;21.70;74.60
24326;DHT22;12448;45.532;5.290;2023-07-20T06:34:58;21.60;74.80
24326;DHT22;12448;45.532;5.290;2023-07-20T06:37:24;21.60;74.70
24326;DHT22;12448;45.532;5.290;2023-07-20T06:39:49;21.50;75.50
24326;DHT22;12448;45.532;5.290;2023-07-20T06:42:15;21.50;75.20
24326;DHT22;12448;45.532;5.290;2023-07-20T06:44:40;21.60;75.10
24326;DHT22;12448;45.532;5.290;2023-07-20T06:47:06;21.70;74.90
24326;DHT22;12448;45.532;5.290;2023-07-20T06:49:33;21.70;74.70
24326;DHT22;12448;45.532;5.290;2023-07-20T06:51:58;21.70;75.50
24326;DHT22;12448;45.532;5.290;2023-07-20T06:54:24;21.70;74.50
24326;DHT22;12448;45.532;5.290;2023-07-20T06:56:50;21.80;74.60
24326;DHT22;12448;45.532;5.290;2023-07-20T06:59:15;21.90;74.50
24326;DHT22;12448;45.532;5.290;2023-07-20T07:01:41;22.00;74.20
24326;DHT22;12448;45.532;5.290;2023-07-20T07:04:07;21.80;73.60
24326;DHT22;12448;45.532;5.290;2023-07-20T07:06:32;21.80;74.40
24326;DHT22;12448;45.532;5.290;2023-07-20T07:08:58;21.70;74.30
24326;DHT22;12448;45.532;5.290;2023-07-20T07:11:24;21.80;74.50
24326;DHT22;12448;45.532;5.290;2023-07-20T07:13:49;21.80;74.00
24326;DHT22;12448;45.532;5.290;2023-07-20T07:16:17;21.90;74.20
24326;DHT22;12448;45.532;5.290;2023-07-20T07:18:45;22.00;73.80
24326;DHT22;12448;45.532;5.290;2023-07-20T07:21:11;22.00;73.50
24326;DHT22;12448;45.532;5.290;2023-07-20T07:23:38;22.00;73.60
24326;DHT22;12448;45.532;5.290;2023-07-20T07:26:04;22.00;73.70
24326;DHT22;12448;45.532;5.290;2023-07-20T07:28:29;22.00;73.60
24326;DHT22;12448;45.532;5.290;2023-07-20T07:30:55;22.00;73.60
24326;DHT22;12448;45.532;5.290;2023-07-20T07:33:22;22.10;73.60
24326;DHT22;12448;45.532;5.290;2023-07-20T07:35:49;22.20;73.60
24326;DHT22;12448;45.532;5.290;2023-07-20T07:38:14;22.20;73.30
24326;DHT22;12448;45.532;5.290;2023-07-20T07:40:40;22.30;73.20
24326;DHT22;12448;45.532;5.290;2023-07-20T07:43:05;22.30;72.70
24326;DHT22;12448;45.532;5.290;2023-07-20T07:45:34;22.20;73.40
24326;DHT22;12448;45.532;5.290;2023-07-20T07:48:01;22.30;72.90
24326;DHT22;12448;45.532;5.290;2023-07-20T07:50:27;22.30;73.10
24326;DHT22;12448;45.532;5.290;2023-07-20T07:52:53;22.30;72.80
24326;DHT22;12448;45.532;5.290;2023-07-20T07:55:19;22.50;72.90
24326;DHT22;12448;45.532;5.290;2023-07-20T07:57:45;22.60;72.30
24326;DHT22;12448;45.532;5.290;2023-07-20T08:00:13;22.70;72.40
24326;DHT22;12448;45.532;5.290;2023-07-20T08:02:41;22.80;72.30
24326;DHT22;12448;45.532;5.290;2023-07-20T08:05:07;22.80;71.40
24326;DHT22;12448;45.532;5.290;2023-07-20T08:07:33;22.80;70.30
24326;DHT22;12448;45.532;5.290;2023-07-20T08:09:58;22.80;70.10
24326;DHT22;12448;45.532;5.290;2023-07-20T08:12:26;22.80;69.80
24326;DHT22;12448;45.532;5.290;2023-07-20T08:14:52;22.70;70.70
24326;DHT22;12448;45.532;5.290;2023-07-20T08:17:18;22.70;71.40
24326;DHT22;12448;45.532;5.290;2023-07-20T08:19:43;22.80;70.10
24326;DHT22;12448;45.532;5.290;2023-07-20T08:22:09;22.80;69.90
24326;DHT22;12448;45.532;5.290;2023-07-20T08:24:38;22.90;70.70
24326;DHT22;12448;45.532;5.290;2023-07-20T08:27:04;22.90;70.60
24326;DHT22;12448;45.532;5.290;2023-07-20T08:29:30;22.90;70.40
24326;DHT22;12448;45.532;5.290;2023-07-20T08:31:56;22.90;68.20
24326;DHT22;12448;45.532;5.290;2023-07-20T08:34:21;23.00;68.90
24326;DHT22;12448;45.532;5.290;2023-07-20T08:36:47;23.00;69.40
24326;DHT22;12448;45.532;5.290;2023-07-20T08:39:12;23.10;68.70
24326;DHT22;12448;45.532;5.290;2023-07-20T08:41:38;23.20;68.90
24326;DHT22;12448;45.532;5.290;2023-07-20T08:44:05;23.20;68.30
24326;DHT22;12448;45.532;5.290;2023-07-20T08:46:33;23.30;68.90
24326;DHT22;12448;45.532;5.290;2023-07-20T08:49:00;23.30;67.80
24326;DHT22;12448;45.532;5.290;2023-07-20T08:51:28;23.50;68.40
24326;DHT22;12448;45.532;5.290;2023-07-20T08:53:54;23.50;68.20
24326;DHT22;12448;45.532;5.290;2023-07-20T08:56:20;23.50;68.00
24326;DHT22;12448;45.532;5.290;2023-07-20T08:58:47;23.50;65.60
24326;DHT22;12448;45.532;5.290;2023-07-20T09:01:14;23.50;65.90
24326;DHT22;12448;45.532;5.290;2023-07-20T09:03:40;23.70;66.30
24326;DHT22;12448;45.532;5.290;2023-07-20T09:06:08;23.70;64.50
24326;DHT22;12448;45.532;5.290;2023-07-20T09:08:37;23.60;64.40
24326;DHT22;12448;45.532;5.290;2023-07-20T09:11:03;23.60;65.60
24326;DHT22;12448;45.532;5.290;2023-07-20T09:13:28;23.70;64.80
24326;DHT22;12448;45.532;5.290;2023-07-20T09:15:54;23.80;65.10
24326;DHT22;12448;45.532;5.290;2023-07-20T09:18:28;23.80;63.80
24326;DHT22;12448;45.532;5.290;2023-07-20T09:21:01;23.80;63.90
24326;DHT22;12448;45.532;5.290;2023-07-20T09:23:34;23.90;64.30
24326;DHT22;12448;45.532;5.290;2023-07-20T09:26:09;23.90;65.10
24326;DHT22;12448;45.532;5.290;2023-07-20T09:28:47;24.00;64.00
24326;DHT22;12448;45.532;5.290;2023-07-20T09:31:20;24.10;63.90
24326;DHT22;12448;45.532;5.290;2023-07-20T09:33:47;24.20;64.60
24326;DHT22;12448;45.532;5.290;2023-07-20T09:36:14;24.30;64.70
24326;DHT22;12448;45.532;5.290;2023-07-20T09:38:41;24.30;63.10
24326;DHT22;12448;45.532;5.290;2023-07-20T09:41:07;24.30;62.90
24326;DHT22;12448;45.532;5.290;2023-07-20T09:43:36;24.20;63.60
24326;DHT22;12448;45.532;5.290;2023-07-20T09:46:02;24.20;63.30
24326;DHT22;12448;45.532;5.290;2023-07-20T09:48:29;24.30;63.50
24326;DHT22;12448;45.532;5.290;2023-07-20T09:50:56;24.30;62.40
24326;DHT22;12448;45.532;5.290;2023-07-20T09:53:24;24.20;62.50
24326;DHT22;12448;45.532;5.290;2023-07-20T09:55:50;24.30;63.10
24326;DHT22;12448;45.532;5.290;2023-07-20T09:58:17;24.20;62.10
24326;DHT22;12448;45.532;5.290;2023-07-20T10:00:44;24.10;62.00
24326;DHT22;12448;45.532;5.290;2023-07-20T10:03:18;24.10;63.00
24326;DHT22;12448;45.532;5.290;2023-07-20T10:05:54;24.10;63.00
24326;DHT22;12448;45.532;5.290;2023-07-20T10:08:24;24.20;63.00
24326;DHT22;12448;45.532;5.290;2023-07-20T10:10:50;24.20;62.60
24326;DHT22;12448;45.532;5.290;2023-07-20T10:13:26;24.30;62.20
24326;DHT22;12448;45.532;5.290;2023-07-20T10:16:03;24.20;61.90
24326;DHT22;12448;45.532;5.290;2023-07-20T10:18:50;24.20;63.90
24326;DHT22;12448;45.532;5.290;2023-07-20T10:21:17;24.20;62.10
24326;DHT22;12448;45.532;5.290;2023-07-20T10:23:45;24.30;61.70
24326;DHT22;12448;45.532;5.290;2023-07-20T10:26:11;24.40;60.90
24326;DHT22;12448;45.532;5.290;2023-07-20T10:28:38;24.40;61.40
24326;DHT22;12448;45.532;5.290;2023-07-20T10:31:07;24.40;61.30
24326;DHT22;12448;45.532;5.290;2023-07-20T10:33:33;24.50;61.50
24326;DHT22;12448;45.532;5.290;2023-07-20T10:36:03;24.50;60.20
24326;DHT22;12448;45.532;5.290;2023-07-20T10:41:27;24.60;59.90
24326;DHT22;12448;45.532;5.290;2023-07-20T10:43:59;24.70;60.50
24326;DHT22;12448;45.532;5.290;2023-07-20T10:46:42;24.70;59.30
24326;DHT22;12448;45.532;5.290;2023-07-20T10:49:12;24.90;59.80
24326;DHT22;12448;45.532;5.290;2023-07-20T10:51:43;24.90;60.70
24326;DHT22;12448;45.532;5.290;2023-07-20T10:56:56;25.10;58.60
24326;DHT22;12448;45.532;5.290;2023-07-20T11:01:55;25.10;58.00
24326;DHT22;12448;45.532;5.290;2023-07-20T11:07:03;24.90;58.40
24326;DHT22;12448;45.532;5.290;2023-07-20T11:09:34;24.90;57.80
24326;DHT22;12448;45.532;5.290;2023-07-20T11:12:13;24.90;57.00
24326;DHT22;12448;45.532;5.290;2023-07-20T11:14:53;25.00;56.50
24326;DHT22;12448;45.532;5.290;2023-07-20T11:17:19;25.10;57.20
24326;DHT22;12448;45.532;5.290;2023-07-20T11:19:48;25.00;57.60
24326;DHT22;12448;45.532;5.290;2023-07-20T11:22:17;25.10;58.00
24326;DHT22;12448;45.532;5.290;2023-07-20T11:24:43;25.20;56.80
24326;DHT22;12448;45.532;5.290;2023-07-20T11:27:09;25.20;55.60
24326;DHT22;12448;45.532;5.290;2023-07-20T11:29:35;25.30;56.90
24326;DHT22;12448;45.532;5.290;2023-07-20T11:32:03;25.20;56.60
24326;DHT22;12448;45.532;5.290;2023-07-20T11:34:30;25.10;56.80
24326;DHT22;12448;45.532;5.290;2023-07-20T11:36:57;25.20;57.50
24326;DHT22;12448;45.532;5.290;2023-07-20T11:39:23;25.30;58.00
24326;DHT22;12448;45.532;5.290;2023-07-20T11:41:57;25.30;56.60
24326;DHT22;12448;45.532;5.290;2023-07-20T11:44:25;25.40;56.60
24326;DHT22;12448;45.532;5.290;2023-07-20T11:47:20;25.50;56.40
24326;DHT22;12448;45.532;5.290;2023-07-20T11:49:46;25.70;55.30
24326;DHT22;12448;45.532;5.290;2023-07-20T11:52:16;25.80;55.40
24326;DHT22;12448;45.532;5.290;2023-07-20T11:54:44;25.90;55.10
24326;DHT22;12448;45.532;5.290;2023-07-20T11:57:17;26.00;55.20
24326;DHT22;12448;45.532;5.290;2023-07-20T12:00:03;26.10;55.10
24326;DHT22;12448;45.532;5.290;2023-07-20T12:02:37;26.20;54.40
24326;DHT22;12448;45.532;5.290;2023-07-20T12:05:05;26.20;54.90
24326;DHT22;12448;45.532;5.290;2023-07-20T12:07:35;26.20;55.00
24326;DHT22;12448;45.532;5.290;2023-07-20T12:10:12;26.20;54.20
24326;DHT22;12448;45.532;5.290;2023-07-20T12:12:38;26.30;54.60
24326;DHT22;12448;45.532;5.290;2023-07-20T12:15:16;26.40;55.20
24326;DHT22;12448;45.532;5.290;2023-07-20T12:17:46;26.50;52.90
24326;DHT22;12448;45.532;5.290;2023-07-20T12:20:12;26.40;53.50
24326;DHT22;12448;45.532;5.290;2023-07-20T12:22:43;26.40;53.80
24326;DHT22;12448;45.532;5.290;2023-07-20T12:25:09;26.30;53.40
24326;DHT22;12448;45.532;5.290;2023-07-20T12:27:38;26.30;53.50
24326;DHT22;12448;45.532;5.290;2023-07-20T12:30:05;26.30;53.60
24326;DHT22;12448;45.532;5.290;2023-07-20T12:32:31;26.30;53.80
24326;DHT22;12448;45.532;5.290;2023-07-20T12:34:57;26.30;53.40
24326;DHT22;12448;45.532;5.290;2023-07-20T12:37:23;26.40;53.40
24326;DHT22;12448;45.532;5.290;2023-07-20T12:39:48;26.40;54.40
24326;DHT22;12448;45.532;5.290;2023-07-20T12:42:14;26.50;53.40
24326;DHT22;12448;45.532;5.290;2023-07-20T12:44:43;26.60;53.40
24326;DHT22;12448;45.532;5.290;2023-07-20T12:47:08;26.60;53.30
24326;DHT22;12448;45.532;5.290;2023-07-20T12:49:34;26.70;53.40
24326;DHT22;12448;45.532;5.290;2023-07-20T12:51:59;26.90;53.40
24326;DHT22;12448;45.532;5.290;2023-07-20T12:54:25;27.00;52.00
24326;DHT22;12448;45.532;5.290;2023-07-20T12:56:51;26.90;51.00
24326;DHT22;12448;45.532;5.290;2023-07-20T12:59:16;26.90;52.30
24326;DHT22;12448;45.532;5.290;2023-07-20T13:01:42;27.00;53.40
24326;DHT22;12448;45.532;5.290;2023-07-20T13:04:09;27.10;52.80
24326;DHT22;12448;45.532;5.290;2023-07-20T13:06:35;27.20;53.30
24326;DHT22;12448;45.532;5.290;2023-07-20T13:09:02;27.30;53.50
24326;DHT22;12448;45.532;5.290;2023-07-20T13:11:28;27.20;52.90
24326;DHT22;12448;45.532;5.290;2023-07-20T13:13:59;27.20;52.30
24326;DHT22;12448;45.532;5.290;2023-07-20T13:16:24;27.30;53.10
24326;DHT22;12448;45.532;5.290;2023-07-20T13:18:51;27.50;52.40
24326;DHT22;12448;45.532;5.290;2023-07-20T13:21:16;27.50;52.00
24326;DHT22;12448;45.532;5.290;2023-07-20T13:23:42;27.50;51.20
24326;DHT22;12448;45.532;5.290;2023-07-20T13:26:08;27.50;51.80
24326;DHT22;12448;45.532;5.290;2023-07-20T13:28:35;27.40;50.90
24326;DHT22;12448;45.532;5.290;2023-07-20T13:31:00;27.40;50.90
24326;DHT22;12448;45.532;5.290;2023-07-20T13:33:28;27.30;50.40
24326;DHT22;12448;45.532;5.290;2023-07-20T13:35:54;27.30;51.50
24326;DHT22;12448;45.532;5.290;2023-07-20T13:38:21;27.50;51.40
24326;DHT22;12448;45.532;5.290;2023-07-20T13:40:47;27.60;51.20
24326;DHT22;12448;45.532;5.290;2023-07-20T13:43:13;27.60;50.40
24326;DHT22;12448;45.532;5.290;2023-07-20T13:45:39;27.70;50.50
24326;DHT22;12448;45.532;5.290;2023-07-20T13:48:04;27.70;49.60
24326;DHT22;12448;45.532;5.290;2023-07-20T13:50:30;27.70;49.60
24326;DHT22;12448;45.532;5.290;2023-07-20T13:52:59;27.90;50.30
24326;DHT22;12448;45.532;5.290;2023-07-20T13:55:25;27.90;49.40
24326;DHT22;12448;45.532;5.290;2023-07-20T13:57:50;28.00;48.80
24326;DHT22;12448;45.532;5.290;2023-07-20T14:00:17;27.90;48.90
24326;DHT22;12448;45.532;5.290;2023-07-20T14:02:43;27.90;49.90
24326;DHT22;12448;45.532;5.290;2023-07-20T14:05:09;27.90;48.60
24326;DHT22;12448;45.532;5.290;2023-07-20T14:07:36;27.80;48.20
24326;DHT22;12448;45.532;5.290;2023-07-20T14:10:02;27.80;48.10
24326;DHT22;12448;45.532;5.290;2023-07-20T14:12:29;27.90;49.90
24326;DHT22;12448;45.532;5.290;2023-07-20T14:15:01;28.00;49.50
24326;DHT22;12448;45.532;5.290;2023-07-20T14:17:28;28.10;48.10
24326;DHT22;12448;45.532;5.290;2023-07-20T14:19:54;28.10;48.50
24326;DHT22;12448;45.532;5.290;2023-07-20T14:22:19;28.10;47.90
24326;DHT22;12448;45.532;5.290;2023-07-20T14:24:45;28.10;48.50
24326;DHT22;12448;45.532;5.290;2023-07-20T14:27:11;28.10;47.90
24326;DHT22;12448;45.532;5.290;2023-07-20T14:29:36;28.20;48.50
24326;DHT22;12448;45.532;5.290;2023-07-20T14:32:02;28.20;47.90
24326;DHT22;12448;45.532;5.290;2023-07-20T14:34:41;28.30;47.90
24326;DHT22;12448;45.532;5.290;2023-07-20T14:37:07;28.40;48.10
24326;DHT22;12448;45.532;5.290;2023-07-20T14:39:33;28.30;48.40
24326;DHT22;12448;45.532;5.290;2023-07-20T14:41:59;28.30;47.40
24326;DHT22;12448;45.532;5.290;2023-07-20T14:44:26;28.30;48.40
24326;DHT22;12448;45.532;5.290;2023-07-20T14:46:51;28.40;47.50
24326;DHT22;12448;45.532;5.290;2023-07-20T14:49:17;28.50;47.80
24326;DHT22;12448;45.532;5.290;2023-07-20T14:51:43;28.50;48.40
24326;DHT22;12448;45.532;5.290;2023-07-20T14:54:12;28.60;47.60
24326;DHT22;12448;45.532;5.290;2023-07-20T14:56:49;28.50;47.00
24326;DHT22;12448;45.532;5.290;2023-07-20T14:59:20;28.50;46.70
24326;DHT22;12448;45.532;5.290;2023-07-20T15:01:46;28.40;46.90
24326;DHT22;12448;45.532;5.290;2023-07-20T15:06:56;28.40;46.30
24326;DHT22;12448;45.532;5.290;2023-07-20T15:09:23;28.50;47.20
24326;DHT22;12448;45.532;5.290;2023-07-20T15:11:49;28.50;47.60
24326;DHT22;12448;45.532;5.290;2023-07-20T15:14:15;28.50;47.30
24326;DHT22;12448;45.532;5.290;2023-07-20T15:16:44;28.60;46.30
24326;DHT22;12448;45.532;5.290;2023-07-20T15:19:16;28.50;46.10
24326;DHT22;12448;45.532;5.290;2023-07-20T15:21:42;28.50;46.50
24326;DHT22;12448;45.532;5.290;2023-07-20T15:24:13;28.60;46.90
24326;DHT22;12448;45.532;5.290;2023-07-20T15:26:38;28.70;47.30
24326;DHT22;12448;45.532;5.290;2023-07-20T15:29:07;28.70;46.90
24326;DHT22;12448;45.532;5.290;2023-07-20T15:31:33;28.70;46.40
24326;DHT22;12448;45.532;5.290;2023-07-20T15:34:00;28.70;46.00
24326;DHT22;12448;45.532;5.290;2023-07-20T15:36:26;28.70;45.70
24326;DHT22;12448;45.532;5.290;2023-07-20T15:38:52;28.60;45.70
24326;DHT22;12448;45.532;5.290;2023-07-20T15:41:18;28.60;45.60
24326;DHT22;12448;45.532;5.290;2023-07-20T15:43:44;28.60;45.00
24326;DHT22;12448;45.532;5.290;2023-07-20T15:48:45;28.60;45.90
24326;DHT22;12448;45.532;5.290;2023-07-20T15:51:11;28.60;45.20
24326;DHT22;12448;45.532;5.290;2023-07-20T15:53:36;28.50;44.50
24326;DHT22;12448;45.532;5.290;2023-07-20T15:56:05;28.40;44.90